»·PEaware :: ASA1387 KSFO-KPDX

ASA1387 :: KSFO-KPDX

FLIGHT INFORMATION

Flight Status: Arrived
Operator:
Alaska Airlines
More flights by this operator :: More flights under this callsign
Pilot: Ruben R. (12247)
Aircraft: AIRBUS A320
(A320)
More flights by this aircraft type
Origin: KSFO San Francisco Intl
United States
Destination: KPDX Portland Intl
United States
More flights between these airports :: More routes between these airports
Route: TRUKN2 GRTFL MACHU TMBRS2
File this flight plan on PilotEdge
Remarks: twitch.tv / mach3Legend
Altitude:
(Current/Filed)
38,000ft
Speed:
(Current/Filed)
450kts
Departed: 09-Oct-18 09:11 PM
Arrived: 09-Oct-18 10:33 PM
Distance/Time
Traveled:
478nm/1:22
Distance/Time
To Go:
Arrived

Flight Plot

Page will automatically refresh every two minutes.


Map Options




Map Legend


Flown Route
Filed Route
Departure Airport
Arrival Airport
Navaid (VOR, NDB)
Fix

Horizontal Profiles

Position Reports

Time Latitude Longitude Heading Altitude Ground
Speed
09-Oct-18 20:34 37.617714 -122.382849 134 22ft 0kts
09-Oct-18 20:35 37.617714 -122.382849 134 22ft 0kts
09-Oct-18 20:36 37.617714 -122.382849 134 22ft 0kts
09-Oct-18 20:37 37.617714 -122.382849 134 22ft 0kts
09-Oct-18 20:38 37.617714 -122.382849 134 22ft 0kts
09-Oct-18 20:39 37.617714 -122.382849 134 22ft 0kts
09-Oct-18 20:40 37.617714 -122.382849 134 22ft 0kts
09-Oct-18 20:41 37.617714 -122.382849 134 22ft 0kts
09-Oct-18 20:42 37.617714 -122.382849 134 22ft 0kts
09-Oct-18 20:43 37.617714 -122.382849 134 22ft 0kts
09-Oct-18 20:44 37.617714 -122.382849 135 22ft 0kts
09-Oct-18 20:45 37.617714 -122.382849 134 22ft 0kts
09-Oct-18 20:46 37.617714 -122.382849 134 22ft 0kts
09-Oct-18 20:47 37.617714 -122.382849 134 22ft 0kts
09-Oct-18 20:48 37.617714 -122.382849 134 22ft 0kts
09-Oct-18 20:49 37.617714 -122.382849 134 22ft 0kts
09-Oct-18 20:50 37.617714 -122.382849 134 21ft 0kts
09-Oct-18 20:51 37.617714 -122.382849 134 21ft 0kts
09-Oct-18 20:52 37.617714 -122.382849 134 21ft 0kts
09-Oct-18 20:53 37.617714 -122.382849 134 21ft 0kts
09-Oct-18 20:54 37.617714 -122.382849 134 21ft 0kts
09-Oct-18 20:55 37.617714 -122.382849 134 21ft 0kts
09-Oct-18 20:56 37.617714 -122.382849 134 21ft 0kts
09-Oct-18 20:57 37.617714 -122.382849 134 21ft 0kts
09-Oct-18 20:58 37.617714 -122.382850 134 21ft 0kts
09-Oct-18 20:59 37.617960 -122.383416 101 21ft 2kts
09-Oct-18 21:00 37.617979 -122.383690 88 21ft 0kts
09-Oct-18 21:01 37.617979 -122.383690 88 21ft 0kts
09-Oct-18 21:02 37.617979 -122.383690 88 21ft 0kts
09-Oct-18 21:03 37.617979 -122.383690 88 21ft 0kts
09-Oct-18 21:04 37.617979 -122.383690 88 21ft 0kts
09-Oct-18 21:05 37.617979 -122.383690 88 21ft 0kts
09-Oct-18 21:06 37.617979 -122.383689 88 21ft 0kts
09-Oct-18 21:07 37.619245 -122.382717 28 21ft 0kts
09-Oct-18 21:08 37.619470 -122.381548 119 21ft 13kts
09-Oct-18 21:09 37.616343 -122.379842 209 21ft 16kts
09-Oct-18 21:10 37.612196 -122.382604 206 21ft 18kts
09-Oct-18 21:11 37.609035 -122.384884 175 21ft 6kts
09-Oct-18 21:12 37.608294 -122.383492 118 21ft 0kts
09-Oct-18 21:13 37.609855 -122.381658 27 21ft 58kts
09-Oct-18 21:14 37.643286 -122.353332 47 2089ft 181kts
09-Oct-18 21:15 37.675833 -122.294460 55 4301ft 250kts
09-Oct-18 21:16 37.720486 -122.220945 26 7237ft 284kts
09-Oct-18 21:17 37.796365 -122.216252 358 9753ft 290kts
09-Oct-18 21:18 37.880661 -122.218732 358 10061ft 357kts
09-Oct-18 21:19 37.983544 -122.221463 358 11096ft 397kts
09-Oct-18 21:20 38.089308 -122.224395 358 11104ft 398kts
09-Oct-18 21:21 38.190156 -122.227141 358 11130ft 398kts
09-Oct-18 21:22 38.299757 -122.230044 358 12796ft 412kts
09-Oct-18 21:23 38.413699 -122.237823 355 14649ft 423kts
09-Oct-18 21:24 38.529469 -122.249835 355 16426ft 431kts
09-Oct-18 21:25 38.645543 -122.261911 355 18090ft 438kts
09-Oct-18 21:26 38.764050 -122.274287 354 19675ft 443kts
09-Oct-18 21:27 38.885697 -122.287135 354 20919ft 445kts
09-Oct-18 21:28 39.008862 -122.300082 354 21082ft 448kts
09-Oct-18 21:29 39.131684 -122.313049 354 21282ft 449kts
09-Oct-18 21:30 39.252357 -122.325834 354 21449ft 450kts
09-Oct-18 21:31 39.375541 -122.338932 354 21577ft 452kts
09-Oct-18 21:32 39.497356 -122.351920 354 22545ft 458kts
09-Oct-18 21:33 39.620380 -122.365097 354 23803ft 464kts
09-Oct-18 21:34 39.733947 -122.377300 354 24859ft 469kts
09-Oct-18 21:35 39.859638 -122.390855 354 25938ft 474kts
09-Oct-18 21:36 39.986025 -122.404535 354 26905ft 479kts
09-Oct-18 21:37 40.111830 -122.418203 354 27863ft 480kts
09-Oct-18 21:38 40.226463 -122.430717 354 29040ft 473kts
09-Oct-18 21:39 40.342204 -122.443339 354 29959ft 472kts
09-Oct-18 21:40 40.463617 -122.456744 354 30935ft 470kts
09-Oct-18 21:41 40.583338 -122.469926 354 31861ft 468kts
09-Oct-18 21:42 40.705308 -122.483404 354 32855ft 463kts
09-Oct-18 21:43 40.820982 -122.496276 354 34319ft 448kts
09-Oct-18 21:44 40.920175 -122.507278 354 34978ft 450kts
09-Oct-18 21:45 41.054456 -122.522282 354 36000ft 447kts
09-Oct-18 21:46 41.158948 -122.533985 354 36266ft 455kts
09-Oct-18 21:47 41.254210 -122.544695 354 36598ft 457kts
09-Oct-18 21:48 41.372935 -122.558106 354 37050ft 457kts
09-Oct-18 21:49 41.511111 -122.573763 354 37509ft 457kts
09-Oct-18 21:50 41.623064 -122.586310 354 37842ft 457kts
09-Oct-18 21:51 41.717739 -122.595673 356 38005ft 457kts
09-Oct-18 21:52 41.849467 -122.601858 357 38007ft 456kts
09-Oct-18 21:53 41.945018 -122.606532 357 38010ft 457kts
09-Oct-18 21:54 42.060750 -122.612169 357 38036ft 457kts
09-Oct-18 21:55 42.167508 -122.617354 357 38039ft 457kts
09-Oct-18 21:56 42.281290 -122.624943 356 38037ft 456kts
09-Oct-18 21:57 42.393246 -122.632464 356 38035ft 456kts
09-Oct-18 21:58 42.510029 -122.640300 356 38034ft 456kts
09-Oct-18 21:59 42.620734 -122.647750 356 38033ft 456kts
09-Oct-18 22:00 42.723489 -122.654687 356 38035ft 456kts
09-Oct-18 22:01 42.843162 -122.662798 356 38057ft 456kts
09-Oct-18 22:02 42.961400 -122.670843 356 38063ft 456kts
09-Oct-18 22:03 43.080473 -122.678978 356 38063ft 456kts
09-Oct-18 22:04 43.189713 -122.686466 356 38063ft 456kts
09-Oct-18 22:05 43.305890 -122.694607 356 38063ft 456kts
09-Oct-18 22:06 43.422298 -122.702533 356 38064ft 456kts
09-Oct-18 22:07 43.536239 -122.710364 356 38064ft 456kts
09-Oct-18 22:08 43.652880 -122.718435 356 38064ft 456kts
09-Oct-18 22:09 43.763418 -122.726116 356 38090ft 456kts
09-Oct-18 22:10 43.902142 -122.735814 356 35770ft 454kts
09-Oct-18 22:11 44.000562 -122.742669 356 31530ft 464kts
09-Oct-18 22:12 44.116612 -122.750818 356 25970ft 469kts
09-Oct-18 22:13 44.241980 -122.744105 3 22844ft 438kts
09-Oct-18 22:14 44.336408 -122.734812 3 20887ft 428kts
09-Oct-18 22:15 44.445700 -122.724048 3 19438ft 392kts
09-Oct-18 22:16 44.537757 -122.715034 3 18789ft 321kts
09-Oct-18 22:17 44.619873 -122.706735 3 17794ft 321kts
09-Oct-18 22:18 44.703232 -122.698317 2 16250ft 317kts
09-Oct-18 22:19 44.787277 -122.689832 3 14680ft 318kts
09-Oct-18 22:20 44.871767 -122.681335 4 13100ft 314kts
09-Oct-18 22:21 44.953190 -122.673161 5 12017ft 292kts
09-Oct-18 22:22 45.028346 -122.665568 5 10845ft 282kts
09-Oct-18 22:23 45.101087 -122.658143 3 9603ft 278kts
09-Oct-18 22:24 45.170135 -122.651087 2 8402ft 275kts
09-Oct-18 22:25 45.240368 -122.643788 6 7191ft 270kts
09-Oct-18 22:26 45.299747 -122.597683 31 5943ft 270kts
09-Oct-18 22:27 45.356405 -122.546747 31 5275ft 247kts
09-Oct-18 22:28 45.407163 -122.501078 31 4427ft 223kts
09-Oct-18 22:29 45.451686 -122.452149 36 3263ft 206kts
09-Oct-18 22:30 45.491755 -122.425070 15 2982ft 150kts
09-Oct-18 22:31 45.523862 -122.445783 311 2094ft 140kts
09-Oct-18 22:32 45.542917 -122.487398 301 1551ft 137kts
09-Oct-18 22:33 45.559541 -122.530241 299 886ft 137kts
09-Oct-18 22:34 45.575910 -122.572260 298 240ft 136kts
09-Oct-18 22:35 45.586802 -122.597189 32 38ft 11kts
09-Oct-18 22:36 45.588559 -122.599379 299 38ft 14kts
09-Oct-18 22:37 45.590090 -122.601624 23 38ft 10kts
09-Oct-18 22:38 45.591052 -122.598420 117 38ft 11kts
09-Oct-18 22:39 45.589978 -122.595761 119 38ft 4kts
09-Oct-18 22:40 45.589230 -122.595824 207 38ft 0kts
09-Oct-18 22:41 45.589230 -122.595824 207 38ft 0kts

Navigation Log

Ident Type
1. KSFO Airport
2. KPDX Airport